createdAt,value
2018-07-28T00:02:08.713Z,14.77
2018-07-28T00:04:36.958Z,15.50
2018-07-28T00:07:05.242Z,15.10
2018-07-28T00:09:33.531Z,14.43
2018-07-28T00:12:01.859Z,14.97
2018-07-28T00:14:30.175Z,14.33
2018-07-28T00:16:59.265Z,15.07
2018-07-28T00:19:27.538Z,15.10
2018-07-28T00:21:55.795Z,15.03
2018-07-28T00:24:24.076Z,14.83
2018-07-28T00:26:52.316Z,14.57
2018-07-28T00:29:20.590Z,13.63
2018-07-28T00:31:48.946Z,14.20
2018-07-28T00:34:17.212Z,13.73
2018-07-28T00:36:45.704Z,14.13
2018-07-28T00:39:14.588Z,14.57
2018-07-28T00:41:43.201Z,14.33
2018-07-28T00:44:11.520Z,13.70
2018-07-28T00:46:39.776Z,12.90
2018-07-28T00:49:08.275Z,13.80
2018-07-28T00:51:36.918Z,13.60
2018-07-28T00:54:05.224Z,14.63
2018-07-28T00:56:33.894Z,15.40
2018-07-28T00:59:02.164Z,15.00
2018-07-28T01:01:30.744Z,15.67
2018-07-28T01:03:59.013Z,15.23
2018-07-28T01:06:27.261Z,14.93
2018-07-28T01:08:55.524Z,14.97
2018-07-28T01:11:23.816Z,16.07
2018-07-28T01:13:52.153Z,15.03
2018-07-28T01:16:20.415Z,16.30
2018-07-28T01:18:50.768Z,16.37
2018-07-28T01:21:19.088Z,17.00
2018-07-28T01:23:47.349Z,17.23
2018-07-28T01:26:15.844Z,17.53
2018-07-28T01:28:48.420Z,18.90
2018-07-28T01:31:16.732Z,18.23
2018-07-28T01:33:45.141Z,18.43
2018-07-28T01:36:13.388Z,18.60
2018-07-28T01:38:41.647Z,18.30
2018-07-28T01:41:09.926Z,18.93
2018-07-28T01:43:38.231Z,20.73
2018-07-28T01:46:06.512Z,19.73
2018-07-28T01:48:34.844Z,20.23
2018-07-28T01:51:03.210Z,18.23
2018-07-28T01:53:31.478Z,19.70
2018-07-28T01:55:59.829Z,19.37
2018-07-28T01:58:28.117Z,18.90
2018-07-28T02:00:56.404Z,20.33
2018-07-28T02:03:24.732Z,19.60
2018-07-28T02:05:52.989Z,21.50
2018-07-28T02:08:21.297Z,21.47
2018-07-28T02:10:49.543Z,21.10
2018-07-28T02:13:17.798Z,20.73
2018-07-28T02:15:46.217Z,22.07
2018-07-28T02:18:14.763Z,23.57
2018-07-28T02:20:43.052Z,22.90
2018-07-28T02:23:11.351Z,24.20
2018-07-28T02:25:39.612Z,22.97
2018-07-28T02:28:07.918Z,21.10
2018-07-28T02:30:36.186Z,19.77
2018-07-28T02:33:04.423Z,20.47
2018-07-28T02:35:32.889Z,20.53
2018-07-28T02:38:01.162Z,19.77
2018-07-28T02:40:29.453Z,19.60
2018-07-28T02:42:57.744Z,19.13
2018-07-28T02:45:26.015Z,19.40
2018-07-28T02:47:54.304Z,18.27
2018-07-28T02:50:22.574Z,19.73
2018-07-28T02:52:51.071Z,18.33
2018-07-28T02:55:19.336Z,17.90
2018-07-28T02:57:47.633Z,18.80
2018-07-28T03:00:16.983Z,20.47
2018-07-28T03:02:45.598Z,20.27
2018-07-28T03:05:13.872Z,20.27
2018-07-28T03:07:42.126Z,21.13
2018-07-28T03:10:10.384Z,19.93
2018-07-28T03:12:38.683Z,20.67
2018-07-28T03:15:24.571Z,20.47
2018-07-28T03:17:52.924Z,20.80
2018-07-28T03:20:21.179Z,21.97
2018-07-28T03:22:50.284Z,22.93
2018-07-28T03:25:18.700Z,23.37
2018-07-28T03:27:47.405Z,22.20
2018-07-28T03:30:15.976Z,23.33
2018-07-28T03:32:44.428Z,23.30
2018-07-28T03:35:12.956Z,25.53
2018-07-28T03:37:41.224Z,29.20
2018-07-28T03:42:44.628Z,26.80
2018-07-28T03:45:12.905Z,27.70
2018-07-28T03:47:41.924Z,24.47
2018-07-28T03:50:10.595Z,23.00
2018-07-28T03:52:38.836Z,23.93
2018-07-28T03:55:08.175Z,23.27
2018-07-28T03:57:43.012Z,23.20
2018-07-28T04:00:12.548Z,20.77
2018-07-28T04:02:40.815Z,20.30
2018-07-28T04:05:10.628Z,18.97
2018-07-28T04:07:39.141Z,18.73
2018-07-28T04:10:08.106Z,18.17
2018-07-28T04:12:36.405Z,19.47
2018-07-28T04:15:06.330Z,19.47
2018-07-28T04:17:39.204Z,17.87
2018-07-28T04:20:07.492Z,17.67
2018-07-28T04:22:35.776Z,17.57
2018-07-28T04:25:04.068Z,18.53
2018-07-28T04:27:32.341Z,18.23
2018-07-28T04:30:00.630Z,20.90
2018-07-28T04:32:28.895Z,19.77
2018-07-28T04:34:57.200Z,19.47
2018-07-28T04:37:25.459Z,19.40
2018-07-28T04:39:53.701Z,19.70
2018-07-28T04:42:22.855Z,20.23
2018-07-28T04:44:51.227Z,25.37
2018-07-28T04:47:19.561Z,24.73
2018-07-28T04:49:47.835Z,28.17
2018-07-28T04:52:16.118Z,28.67
2018-07-28T04:54:44.657Z,29.03
2018-07-28T04:57:12.996Z,26.77
2018-07-28T04:59:41.729Z,26.17
2018-07-28T05:02:10.033Z,25.80
2018-07-28T05:04:38.352Z,24.63
2018-07-28T05:07:06.672Z,24.90
2018-07-28T05:09:34.948Z,26.40
2018-07-28T05:12:03.229Z,24.07
2018-07-28T05:14:31.528Z,23.90
2018-07-28T05:16:59.812Z,23.87
2018-07-28T05:19:28.084Z,22.40
2018-07-28T05:21:56.540Z,22.00
2018-07-28T05:24:24.828Z,20.97
2018-07-28T05:26:53.140Z,21.40
2018-07-28T05:29:21.439Z,19.50
2018-07-28T05:31:49.688Z,18.50
2018-07-28T05:34:17.944Z,18.93
2018-07-28T05:36:46.589Z,17.93
2018-07-28T05:39:14.866Z,18.33
2018-07-28T05:41:43.149Z,18.53
2018-07-28T05:44:11.392Z,16.93
2018-07-28T05:46:39.640Z,16.83
2018-07-28T05:49:07.885Z,16.10
2018-07-28T05:51:36.206Z,17.27
2018-07-28T05:54:04.471Z,17.57
2018-07-28T05:56:32.727Z,16.00
2018-07-28T05:59:00.975Z,16.60
2018-07-28T06:01:29.259Z,17.87
2018-07-28T06:03:57.527Z,21.37
2018-07-28T06:06:25.769Z,21.37
2018-07-28T06:08:54.136Z,20.17
2018-07-28T06:11:22.380Z,19.53
2018-07-28T06:13:50.729Z,18.67
2018-07-28T06:16:19.002Z,19.13
2018-07-28T06:18:47.285Z,18.97
2018-07-28T06:21:15.589Z,17.83
2018-07-28T06:23:43.855Z,16.03
2018-07-28T06:26:12.204Z,14.10
2018-07-28T06:28:40.451Z,12.80
2018-07-28T06:31:08.738Z,11.88
2018-07-28T06:33:37.047Z,11.48
2018-07-28T06:36:05.327Z,12.35
2018-07-28T06:38:33.585Z,13.28
2018-07-28T06:41:01.877Z,13.60
2018-07-28T06:43:30.196Z,12.67
2018-07-28T06:45:58.526Z,12.60
2018-07-28T06:48:26.763Z,12.23
2018-07-28T06:50:55.021Z,11.20
2018-07-28T06:53:23.315Z,12.00
2018-07-28T06:55:51.618Z,12.50
2018-07-28T06:58:20.132Z,12.27
2018-07-28T07:00:48.396Z,11.50
2018-07-28T07:03:16.656Z,14.07
2018-07-28T07:05:45.916Z,13.33
2018-07-28T07:08:14.329Z,12.37
2018-07-28T07:10:42.623Z,11.40
2018-07-28T07:13:10.884Z,11.23
2018-07-28T07:15:39.144Z,10.43
2018-07-28T07:18:07.428Z,11.67
2018-07-28T07:20:35.672Z,12.83
2018-07-28T07:23:03.928Z,12.97
2018-07-28T07:25:32.165Z,12.57
2018-07-28T07:28:00.445Z,11.27
2018-07-28T07:30:28.756Z,11.13
2018-07-28T07:32:57.089Z,10.20
2018-07-28T07:35:25.357Z,9.93
2018-07-28T07:37:53.625Z,10.03
2018-07-28T07:40:21.870Z,12.07
2018-07-28T07:42:50.076Z,11.43
2018-07-28T07:45:18.275Z,12.23
2018-07-28T07:47:46.647Z,11.70
2018-07-28T07:50:14.875Z,11.83
2018-07-28T07:52:43.198Z,12.50
2018-07-28T07:55:11.555Z,11.83
2018-07-28T07:57:39.764Z,12.17
2018-07-28T08:00:08.279Z,10.90
2018-07-28T08:02:36.498Z,10.37
2018-07-28T08:05:05.048Z,10.20
2018-07-28T08:07:33.303Z,10.53
2018-07-28T08:10:01.994Z,10.87
2018-07-28T08:12:30.233Z,9.70
2018-07-28T08:14:58.623Z,10.37
2018-07-28T08:17:26.876Z,9.80
2018-07-28T08:19:55.072Z,9.57
2018-07-28T08:22:24.299Z,10.40
2018-07-28T08:24:52.560Z,9.80
2018-07-28T08:27:20.768Z,10.37
2018-07-28T08:29:50.003Z,10.20
2018-07-28T08:32:18.247Z,9.80
2018-07-28T08:34:46.917Z,10.37
2018-07-28T08:37:15.125Z,10.00
2018-07-28T08:39:43.364Z,9.90
2018-07-28T08:42:11.612Z,10.13
2018-07-28T08:44:39.873Z,9.73
2018-07-28T08:47:08.911Z,10.37
2018-07-28T08:49:37.186Z,9.43
2018-07-28T08:52:05.459Z,10.63
2018-07-28T08:54:33.745Z,9.67
2018-07-28T08:57:01.994Z,10.57
2018-07-28T08:59:30.200Z,9.90
2018-07-28T09:01:58.416Z,9.10
2018-07-28T09:04:26.629Z,8.97
2018-07-28T09:06:54.872Z,9.10
2018-07-28T09:09:23.147Z,8.33
2018-07-28T09:11:51.344Z,9.67
2018-07-28T09:14:19.653Z,8.70
2018-07-28T09:16:47.894Z,8.90
2018-07-28T09:19:16.137Z,9.27
2018-07-28T09:21:44.397Z,16.23
2018-07-28T09:24:12.684Z,10.57
2018-07-28T09:26:40.908Z,8.60
2018-07-28T09:29:09.161Z,8.73
2018-07-28T09:31:37.416Z,7.73
2018-07-28T09:34:05.758Z,8.73
2018-07-28T09:36:33.983Z,8.47
2018-07-28T09:39:02.216Z,8.30
2018-07-28T09:41:30.411Z,8.33
2018-07-28T09:43:58.627Z,8.43
2018-07-28T09:46:26.927Z,8.50
2018-07-28T09:48:55.136Z,7.10
2018-07-28T09:51:23.335Z,7.50
2018-07-28T09:53:51.728Z,7.47
2018-07-28T09:56:20.441Z,6.63
2018-07-28T09:58:48.891Z,6.50
2018-07-28T10:01:19.138Z,6.53
2018-07-28T10:03:47.997Z,7.07
2018-07-28T10:06:16.275Z,7.33
2018-07-28T10:08:44.601Z,7.07
2018-07-28T10:11:13.232Z,7.50
2018-07-28T10:13:41.471Z,6.30
2018-07-28T10:16:09.774Z,7.47
2018-07-28T10:18:38.215Z,7.57
2018-07-28T10:21:06.512Z,7.40
2018-07-28T10:23:34.919Z,7.17
2018-07-28T10:26:03.153Z,7.50
2018-07-28T10:28:31.733Z,6.60
2018-07-28T10:30:59.955Z,6.53
2018-07-28T10:33:28.147Z,5.90
2018-07-28T10:35:56.391Z,5.87
2018-07-28T10:38:24.636Z,6.00
2018-07-28T10:40:52.827Z,5.70
2018-07-28T10:43:21.054Z,6.05
2018-07-28T10:45:49.343Z,6.05
2018-07-28T10:48:17.555Z,5.87
2018-07-28T10:50:46.088Z,6.45
2018-07-28T10:53:14.343Z,6.33
2018-07-28T10:55:43.041Z,6.10
2018-07-28T10:58:11.263Z,6.72
2018-07-28T11:00:39.475Z,6.33
2018-07-28T11:03:07.671Z,5.83
2018-07-28T11:05:35.896Z,6.42
2018-07-28T11:08:04.240Z,5.58
2018-07-28T11:10:32.539Z,5.42
2018-07-28T11:13:00.750Z,5.65
2018-07-28T11:15:28.951Z,5.22
2018-07-28T11:17:57.146Z,6.00
2018-07-28T11:20:25.343Z,5.65
2018-07-28T11:22:53.547Z,5.00
2018-07-28T11:25:21.750Z,5.53
2018-07-28T11:27:49.960Z,5.87
2018-07-28T11:30:18.232Z,5.50
2018-07-28T11:32:52.053Z,6.30
2018-07-28T11:35:26.415Z,5.83
2018-07-28T11:38:01.013Z,5.85
2018-07-28T11:40:34.756Z,5.67
2018-07-28T11:43:08.547Z,5.00
2018-07-28T11:45:36.776Z,5.80
2018-07-28T11:48:04.977Z,5.45
2018-07-28T11:50:33.228Z,5.22
2018-07-28T11:53:01.428Z,5.05
2018-07-28T11:55:29.687Z,5.53
2018-07-28T11:57:57.924Z,5.30
2018-07-28T12:00:26.196Z,5.45
2018-07-28T12:02:54.440Z,5.08
2018-07-28T12:05:22.673Z,5.50
2018-07-28T12:07:50.899Z,5.20
2018-07-28T12:10:19.124Z,5.10
2018-07-28T12:12:47.916Z,6.22
2018-07-28T12:15:16.709Z,5.78
2018-07-28T12:17:45.679Z,5.15
2018-07-28T12:20:14.383Z,5.08
2018-07-28T12:22:43.268Z,5.37
2018-07-28T12:25:11.879Z,4.85
2018-07-28T12:27:40.657Z,4.95
2018-07-28T12:30:10.899Z,5.40
2018-07-28T12:32:39.870Z,5.62
2018-07-28T12:35:08.762Z,5.22
2018-07-28T12:37:37.580Z,5.22
2018-07-28T12:40:06.270Z,5.35
2018-07-28T12:42:35.142Z,5.50
2018-07-28T12:45:03.936Z,6.15
2018-07-28T12:47:32.854Z,5.47
2018-07-28T12:50:01.622Z,4.92
2018-07-28T12:52:30.408Z,5.03
2018-07-28T12:54:59.328Z,5.60
2018-07-28T12:57:27.771Z,5.60
2018-07-28T12:59:55.980Z,5.20
2018-07-28T13:02:24.268Z,5.20
2018-07-28T13:04:52.499Z,5.40
2018-07-28T13:07:20.743Z,5.05
2018-07-28T13:09:48.980Z,5.45
2018-07-28T13:12:17.185Z,5.00
2018-07-28T13:14:45.569Z,5.55
2018-07-28T13:17:13.854Z,5.22
2018-07-28T13:19:42.066Z,5.85
2018-07-28T13:22:10.295Z,10.20
2018-07-28T13:27:13.811Z,5.28
2018-07-28T13:29:42.120Z,5.95
2018-07-28T13:32:10.291Z,13.38
2018-07-28T13:34:38.507Z,11.50
2018-07-28T13:37:06.797Z,6.12
2018-07-28T13:39:35.001Z,5.17
2018-07-28T13:42:03.230Z,5.67
2018-07-28T13:44:31.447Z,6.85
2018-07-28T13:46:59.666Z,5.92
2018-07-28T13:49:28.140Z,5.47
2018-07-28T13:51:56.390Z,5.80
2018-07-28T13:54:24.598Z,5.55
2018-07-28T13:56:52.803Z,5.83
2018-07-28T13:59:21.096Z,5.08
2018-07-28T14:01:49.471Z,5.45
2018-07-28T14:04:19.203Z,5.05
2018-07-28T14:06:47.489Z,5.12
2018-07-28T14:09:15.754Z,5.15
2018-07-28T14:11:43.963Z,5.50
2018-07-28T14:14:12.214Z,5.33
2018-07-28T14:16:40.412Z,5.22
2018-07-28T14:19:08.703Z,4.78
2018-07-28T14:21:36.908Z,5.42
2018-07-28T14:24:05.388Z,4.87
2018-07-28T14:26:33.631Z,5.47
2018-07-28T14:29:01.874Z,5.47
2018-07-28T14:31:30.148Z,5.03
2018-07-28T14:33:58.436Z,5.40
2018-07-28T14:36:26.627Z,5.08
2018-07-28T14:38:54.832Z,5.53
2018-07-28T14:41:23.253Z,5.47
2018-07-28T14:43:51.736Z,5.12
2018-07-28T14:46:19.967Z,5.50
2018-07-28T14:48:48.227Z,7.05
2018-07-28T14:51:16.528Z,6.10
2018-07-28T14:53:44.791Z,7.30
2018-07-28T14:56:13.032Z,8.23
2018-07-28T14:58:41.676Z,6.03
2018-07-28T15:01:09.928Z,5.85
2018-07-28T15:03:38.137Z,6.37
2018-07-28T15:06:06.351Z,6.33
2018-07-28T15:08:35.155Z,6.50
2018-07-28T15:11:03.882Z,6.03
2018-07-28T15:13:32.157Z,6.42
2018-07-28T15:16:00.396Z,5.87
2018-07-28T15:18:28.639Z,6.78
2018-07-28T15:20:56.988Z,6.50
2018-07-28T15:23:25.209Z,5.62
2018-07-28T15:25:53.485Z,5.83
2018-07-28T15:28:21.724Z,5.80
2018-07-28T15:30:49.944Z,6.28
2018-07-28T15:33:18.208Z,6.05
2018-07-28T15:35:46.837Z,6.60
2018-07-28T15:38:15.036Z,5.67
2018-07-28T15:40:43.263Z,6.33
2018-07-28T15:43:11.479Z,6.03
2018-07-28T15:45:39.808Z,6.85
2018-07-28T15:48:08.034Z,6.72
2018-07-28T15:50:36.292Z,6.78
2018-07-28T15:53:04.804Z,6.10
2018-07-28T15:55:33.005Z,7.07
2018-07-28T15:58:01.268Z,6.30
2018-07-28T16:00:29.455Z,6.80
2018-07-28T16:02:57.693Z,7.37
2018-07-28T16:05:25.972Z,6.43
2018-07-28T16:07:54.206Z,7.53
2018-07-28T16:10:22.420Z,7.57
2018-07-28T16:12:50.644Z,7.07
2018-07-28T16:15:18.892Z,6.70
2018-07-28T16:17:47.620Z,7.20
2018-07-28T16:20:15.902Z,7.70
2018-07-28T16:22:44.076Z,7.60
2018-07-28T16:25:12.355Z,7.20
2018-07-28T16:27:40.651Z,6.47
2018-07-28T16:30:09.431Z,6.13
2018-07-28T16:32:37.712Z,7.27
2018-07-28T16:35:06.400Z,7.10
2018-07-28T16:37:34.599Z,8.27
2018-07-28T16:40:02.963Z,8.37
2018-07-28T16:42:31.288Z,7.30
2018-07-28T16:44:59.500Z,6.93
2018-07-28T16:47:27.718Z,6.37
2018-07-28T16:49:55.912Z,7.30
2018-07-28T16:52:24.171Z,6.90
2018-07-28T16:54:52.539Z,7.40
2018-07-28T16:57:21.135Z,7.60
2018-07-28T16:59:49.412Z,6.97
2018-07-28T17:02:18.079Z,6.77
2018-07-28T17:04:46.569Z,6.93
2018-07-28T17:07:14.834Z,6.57
2018-07-28T17:09:43.221Z,6.90
2018-07-28T17:12:11.440Z,6.40
2018-07-28T17:14:39.649Z,6.23
2018-07-28T17:17:07.899Z,6.75
2018-07-28T17:19:36.192Z,6.67
2018-07-28T17:22:04.395Z,6.80
2018-07-28T17:24:32.601Z,6.30
2018-07-28T17:27:00.803Z,6.47
2018-07-28T17:29:28.999Z,7.30
2018-07-28T17:31:57.308Z,8.03
2018-07-28T17:34:25.549Z,9.30
2018-07-28T17:36:53.751Z,10.80
2018-07-28T17:39:22.011Z,13.13
2018-07-28T17:41:50.211Z,7.83
2018-07-28T17:44:18.469Z,8.53
2018-07-28T17:46:46.773Z,8.13
2018-07-28T17:49:15.013Z,9.40
2018-07-28T17:51:43.212Z,9.40
2018-07-28T17:54:11.418Z,8.07
2018-07-28T17:56:39.643Z,8.17
2018-07-28T17:59:07.844Z,7.27
2018-07-28T18:01:36.095Z,7.30
2018-07-28T18:04:04.944Z,7.47
2018-07-28T18:06:33.203Z,15.97
2018-07-28T18:09:01.552Z,33.20
2018-07-28T18:11:29.767Z,27.77
2018-07-28T18:13:57.963Z,29.13
2018-07-28T18:16:26.155Z,53.60
2018-07-28T18:18:54.405Z,55.47
2018-07-28T18:21:22.605Z,28.33
2018-07-28T18:23:50.922Z,39.93
2018-07-28T18:26:19.148Z,54.73
2018-07-28T18:28:47.580Z,38.13
2018-07-28T18:31:15.828Z,17.33
2018-07-28T18:33:44.045Z,10.53
2018-07-28T18:36:12.267Z,9.43
2018-07-28T18:38:40.460Z,9.67
2018-07-28T18:41:08.725Z,10.73
2018-07-28T18:43:36.923Z,12.70
2018-07-28T18:46:05.348Z,12.63
2018-07-28T18:48:33.608Z,12.17
2018-07-28T18:51:02.410Z,12.50
2018-07-28T18:53:30.615Z,10.07
2018-07-28T18:55:58.851Z,9.23
2018-07-28T18:58:27.107Z,10.03
2018-07-28T19:00:55.343Z,11.00
2018-07-28T19:03:23.548Z,11.77
2018-07-28T19:05:51.848Z,11.70
2018-07-28T19:08:20.548Z,12.10
2018-07-28T19:10:49.551Z,12.33
2018-07-28T19:13:23.403Z,12.73
2018-07-28T19:15:51.620Z,13.50
2018-07-28T19:18:25.186Z,12.77
2018-07-28T19:20:53.411Z,11.83
2018-07-28T19:23:28.041Z,12.67
2018-07-28T19:25:56.313Z,12.30
2018-07-28T19:28:29.962Z,12.30
2018-07-28T19:30:58.205Z,11.40
2018-07-28T19:33:26.444Z,12.37
2018-07-28T19:37:01.868Z,12.53
2018-07-28T19:39:30.083Z,11.60
2018-07-28T19:42:03.843Z,13.17
2018-07-28T19:44:32.048Z,12.73
2018-07-28T19:47:00.286Z,12.83
2018-07-28T19:49:28.532Z,14.37
2018-07-28T19:51:56.787Z,15.60
2018-07-28T19:54:25.020Z,15.60
2018-07-28T19:56:53.259Z,15.07
2018-07-28T19:59:21.475Z,15.33
2018-07-28T20:01:49.680Z,15.03
2018-07-28T20:04:17.922Z,15.50
2018-07-28T20:06:46.252Z,15.90
2018-07-28T20:09:14.480Z,16.23
2018-07-28T20:11:42.697Z,14.70
2018-07-28T20:14:10.919Z,15.70
2018-07-28T20:16:39.468Z,16.73
2018-07-28T20:19:08.112Z,15.93
2018-07-28T20:21:36.341Z,16.23
2018-07-28T20:24:04.564Z,16.27
2018-07-28T20:26:32.841Z,14.83
2018-07-28T20:29:01.094Z,14.27
2018-07-28T20:31:29.323Z,14.40
2018-07-28T20:33:57.528Z,14.40
2018-07-28T20:36:25.747Z,13.70
2018-07-28T20:38:54.023Z,15.37
2018-07-28T20:41:22.356Z,14.40
2018-07-28T20:43:51.020Z,13.73
2018-07-28T20:46:19.253Z,14.47
2018-07-28T20:48:47.690Z,14.00
2018-07-28T20:51:15.943Z,15.07
2018-07-28T20:53:44.155Z,15.40
2018-07-28T20:56:12.392Z,15.07
2018-07-28T20:58:40.668Z,15.10
2018-07-28T21:01:08.931Z,15.17
2018-07-28T21:03:37.347Z,15.50
2018-07-28T21:06:06.238Z,16.37
2018-07-28T21:08:34.435Z,15.63
2018-07-28T21:11:02.671Z,15.43
2018-07-28T21:13:30.872Z,16.30
2018-07-28T21:15:59.099Z,16.13
2018-07-28T21:18:27.331Z,16.73
2018-07-28T21:20:55.542Z,15.43
2018-07-28T21:23:23.799Z,16.30
2018-07-28T21:25:52.010Z,16.77
2018-07-28T21:28:20.227Z,17.77
2018-07-28T21:30:48.435Z,17.03
2018-07-28T21:33:16.687Z,16.50
2018-07-28T21:35:44.888Z,17.20
2018-07-28T21:38:13.104Z,18.17
2018-07-28T21:40:41.319Z,18.43
2018-07-28T21:43:09.528Z,17.93
2018-07-28T21:45:37.862Z,18.57
2018-07-28T21:48:06.486Z,18.60
2018-07-28T21:50:34.758Z,18.80
2018-07-28T21:53:03.050Z,19.10
2018-07-28T21:55:31.997Z,19.13
2018-07-28T21:58:00.580Z,17.53
2018-07-28T22:00:33.499Z,18.47
2018-07-28T22:03:01.760Z,18.70
2018-07-28T22:05:29.992Z,18.77
2018-07-28T22:07:58.207Z,19.83
2018-07-28T22:10:26.416Z,19.43
2018-07-28T22:12:54.628Z,18.57
2018-07-28T22:15:22.867Z,19.80
2018-07-28T22:17:51.079Z,19.80
2018-07-28T22:20:19.283Z,20.13
2018-07-28T22:22:47.859Z,20.17
2018-07-28T22:25:16.058Z,20.27
2018-07-28T22:27:44.363Z,19.23
2018-07-28T22:30:12.954Z,19.50
2018-07-28T22:32:41.263Z,20.80
2018-07-28T22:35:09.476Z,20.77
2018-07-28T22:37:37.771Z,21.37
2018-07-28T22:40:06.059Z,21.63
2018-07-28T22:42:39.939Z,20.40
2018-07-28T22:45:08.188Z,20.70
2018-07-28T22:47:36.392Z,21.20
2018-07-28T22:50:04.831Z,20.10
2018-07-28T22:52:33.025Z,19.83
2018-07-28T22:55:01.384Z,22.77
2018-07-28T22:57:29.625Z,21.17
2018-07-28T22:59:58.570Z,20.33
2018-07-28T23:02:27.146Z,19.33
2018-07-28T23:04:55.390Z,20.07
2018-07-28T23:07:23.615Z,19.63
2018-07-28T23:09:51.955Z,18.53
2018-07-28T23:12:20.209Z,19.43
2018-07-28T23:14:48.601Z,18.13
2018-07-28T23:17:16.948Z,19.00
2018-07-28T23:19:45.261Z,19.70
2018-07-28T23:22:14.149Z,19.33
2018-07-28T23:24:42.489Z,19.27
2018-07-28T23:27:10.740Z,19.53
2018-07-28T23:29:39.002Z,19.73
2018-07-28T23:32:07.256Z,21.17
2018-07-28T23:37:03.748Z,20.93
2018-07-28T23:39:31.990Z,19.77
2018-07-28T23:42:00.268Z,19.50
2018-07-28T23:44:28.603Z,19.37
2018-07-28T23:46:56.843Z,19.03
2018-07-28T23:49:25.069Z,19.20
2018-07-28T23:51:53.350Z,19.40
2018-07-28T23:54:21.700Z,19.47
2018-07-28T23:59:24.645Z,18.53
